Terminal Aerodrome Forecast
Issued by NWS Dallas/Fort Worth, TX

Home | Current Version | Previous Version | Text Only | Print | Product List | Glossary On
Versions: 1 2 3 4 5 6 7 8 9 10 11 12 13 14 15 16 17 18 19 20 21 22 23 24 25 26 27
000
FTUS44 KFWD 310500
TAFDFW
TAF
KDFW 310520Z 3106/0112 34010KT P6SM VCTS SCT030CB BKN100
      TEMPO 3106/3110 36015KT 4SM -TSRA BKN010CB OVC100
     FM311200 07006KT P6SM VCTS BKN020CB BKN100
     FM311500 34012KT P6SM BKN025
     FM311900 35014KT P6SM BKN035
     FM010200 36009KT P6SM SCT040=

USA.gov is the U.S. government's official web portal to all federal, state and local government web resources and services.